Time;durP1;ratioP1;P1;durP2;ratioP2;P2;SDS_P1;SDS_P2;PMS_P1;PMS_P2;Temp;Humidity;BMP_temperature;BMP_pressure;BME280_temperature;BME280_humidity;BME280_pressure;Samples;Min_cycle;Max_cycle;Signal;HPM_P1;HPM_P2
2023/07/15 00:00:53;;;;;;;6.13;3.78;;;20.00;99.90;;;;;;5080056;28;20047;-59
2023/07/15 00:03:20;;;;;;;6.63;4.10;;;20.00;99.90;;;;;;5080540;28;20049;-59
2023/07/15 00:05:46;;;;;;;6.82;3.85;;;20.00;99.90;;;;;;5078843;28;20128;-59
2023/07/15 00:08:12;;;;;;;7.05;3.85;;;20.10;99.90;;;;;;5080977;28;20552;-59
2023/07/15 00:10:42;;;;;;;5.00;3.78;;;20.10;99.90;;;;;;5078255;28;20071;-59
2023/07/15 00:13:14;;;;;;;6.65;3.60;;;20.10;99.90;;;;;;5081261;28;20040;-58
2023/07/15 00:15:43;;;;;;;9.82;4.03;;;20.10;99.90;;;;;;5079603;28;20044;-58
2023/07/15 00:18:14;;;;;;;6.57;3.63;;;20.10;99.90;;;;;;5077731;28;20061;-59
2023/07/15 00:20:41;;;;;;;5.18;3.45;;;20.10;99.90;;;;;;5080460;28;20048;-59
2023/07/15 00:23:26;;;;;;;6.82;3.25;;;20.20;99.90;;;;;;5078503;28;20040;-58
2023/07/15 00:25:56;;;;;;;9.13;3.70;;;20.20;99.90;;;;;;5080906;28;20044;-58
2023/07/15 00:28:22;;;;;;;6.43;3.55;;;20.20;99.90;;;;;;5078152;28;20049;-58
2023/07/15 00:30:54;;;;;;;6.43;3.50;;;20.20;99.90;;;;;;5078016;28;20036;-58
2023/07/15 00:33:20;;;;;;;5.63;3.50;;;20.20;99.90;;;;;;5079963;28;20045;-58
2023/07/15 00:35:47;;;;;;;6.80;3.03;;;20.20;99.90;;;;;;5077237;28;20049;-59
2023/07/15 00:38:13;;;;;;;6.63;3.58;;;20.20;99.90;;;;;;5079056;28;20044;-59
2023/07/15 00:40:46;;;;;;;8.55;3.60;;;20.20;99.90;;;;;;5076498;28;20036;-59
2023/07/15 00:43:50;;;;;;;4.50;2.92;;;20.30;99.90;;;;;;5080452;28;20079;-58
2023/07/15 00:46:19;;;;;;;4.80;3.28;;;20.30;99.90;;;;;;5080233;28;20045;-59
2023/07/15 00:49:14;;;;;;;6.22;3.05;;;20.30;99.90;;;;;;5078387;28;20404;-58
2023/07/15 00:51:43;;;;;;;8.00;3.63;;;20.30;99.90;;;;;;5079150;28;20044;-58
2023/07/15 00:54:11;;;;;;;5.80;3.30;;;20.30;99.90;;;;;;5079031;28;20105;-59
2023/07/15 00:56:38;;;;;;;5.07;3.63;;;20.40;99.90;;;;;;5079027;28;20102;-59
2023/07/15 00:59:06;;;;;;;5.47;3.22;;;20.30;99.90;;;;;;5079820;28;20036;-58
2023/07/15 01:01:32;;;;;;;7.22;3.00;;;20.30;99.90;;;;;;5078107;28;20032;-59
2023/07/15 01:03:58;;;;;;;5.90;3.00;;;20.30;99.90;;;;;;5078732;28;20052;-58
2023/07/15 01:06:26;;;;;;;6.70;3.50;;;20.40;99.90;;;;;;5077840;28;20662;-59
2023/07/15 01:08:52;;;;;;;5.75;2.97;;;20.40;99.90;;;;;;5078897;28;20044;-58
2023/07/15 01:11:18;;;;;;;7.93;2.80;;;20.40;99.90;;;;;;5078594;28;20040;-58
2023/07/15 01:13:43;;;;;;;6.70;3.05;;;20.40;99.90;;;;;;5078761;28;20076;-59
2023/07/15 01:16:09;;;;;;;7.13;3.38;;;20.50;99.90;;;;;;5079476;28;20109;-59
2023/07/15 01:18:36;;;;;;;6.85;3.00;;;20.40;99.90;;;;;;5093077;28;20048;-59
2023/07/15 01:21:03;;;;;;;8.32;2.80;;;20.40;99.90;;;;;;5078393;28;20045;-59
2023/07/15 01:23:29;;;;;;;6.15;2.83;;;20.50;99.90;;;;;;5077669;28;20064;-59
2023/07/15 01:25:56;;;;;;;5.78;3.00;;;20.50;99.90;;;;;;5080126;28;20147;-58
2023/07/15 01:28:22;;;;;;;6.40;3.05;;;20.50;99.90;;;;;;5078574;28;20040;-58
2023/07/15 01:30:48;;;;;;;5.75;3.20;;;20.50;99.90;;;;;;5078634;28;20070;-59
2023/07/15 01:33:18;;;;;;;5.57;2.88;;;20.50;99.90;;;;;;5079425;28;20044;-58
2023/07/15 01:35:48;;;;;;;7.93;2.90;;;20.50;99.90;;;;;;5077784;28;20882;-59
2023/07/15 01:38:16;;;;;;;5.85;3.35;;;20.60;99.90;;;;;;5079838;28;20113;-58
2023/07/15 01:40:43;;;;;;;5.43;3.25;;;20.50;99.90;;;;;;5078978;28;20045;-59
2023/07/15 01:43:09;;;;;;;5.07;2.72;;;20.50;99.90;;;;;;5083688;28;20100;-59
2023/07/15 01:45:36;;;;;;;4.53;2.67;;;20.50;99.90;;;;;;5082714;28;20044;-58
2023/07/15 01:48:02;;;;;;;4.72;2.70;;;20.50;99.90;;;;;;5082546;28;20052;-59
2023/07/15 01:50:27;;;;;;;4.97;3.10;;;20.50;99.90;;;;;;5083434;28;20086;-59
2023/07/15 01:52:53;;;;;;;4.78;2.80;;;20.50;99.90;;;;;;5081439;28;20045;-59
2023/07/15 01:55:19;;;;;;;5.90;2.90;;;20.50;99.90;;;;;;5083413;28;20066;-58
2023/07/15 01:57:44;;;;;;;5.63;3.00;;;20.60;99.90;;;;;;5081080;28;20064;-58
2023/07/15 02:00:10;;;;;;;4.68;3.00;;;20.60;99.90;;;;;;5083755;28;20044;-58
2023/07/15 02:02:36;;;;;;;7.65;2.58;;;20.50;99.90;;;;;;5081857;28;20132;-59
2023/07/15 02:05:02;;;;;;;6.75;2.22;;;20.50;99.90;;;;;;5082372;28;20105;-58
2023/07/15 02:07:28;;;;;;;6.75;2.97;;;20.50;99.90;;;;;;5082955;28;20100;-59
2023/07/15 02:09:54;;;;;;;5.68;3.00;;;20.50;99.90;;;;;;5081298;28;20032;-59
2023/07/15 02:12:20;;;;;;;8.35;2.65;;;20.60;99.90;;;;;;5082761;28;20575;-59
2023/07/15 02:14:46;;;;;;;5.20;2.55;;;20.60;99.90;;;;;;5079322;28;20082;-59
2023/07/15 02:17:12;;;;;;;7.75;2.65;;;20.60;99.90;;;;;;5083155;28;20048;-59
2023/07/15 02:19:37;;;;;;;6.35;2.67;;;20.60;99.90;;;;;;5081306;28;20050;-58
2023/07/15 02:22:03;;;;;;;5.68;2.53;;;20.60;99.90;;;;;;5082370;28;20047;-59
2023/07/15 02:24:29;;;;;;;4.47;2.60;;;20.60;99.90;;;;;;5081189;28;20044;-58
2023/07/15 02:26:55;;;;;;;8.35;2.88;;;20.60;99.90;;;;;;5080839;28;20064;-57
2023/07/15 02:29:20;;;;;;;9.73;2.80;;;20.70;99.90;;;;;;5082635;28;20118;-59
2023/07/15 02:31:46;;;;;;;7.07;2.65;;;20.70;99.90;;;;;;5080722;28;20048;-59
2023/07/15 02:34:13;;;;;;;4.15;2.33;;;20.70;99.90;;;;;;5082844;28;20072;-59
2023/07/15 02:36:38;;;;;;;8.52;2.60;;;20.70;99.90;;;;;;5079545;28;20048;-58
2023/07/15 02:39:04;;;;;;;7.80;2.72;;;20.70;99.80;;;;;;5082418;28;20041;-59
2023/07/15 02:41:34;;;;;;;6.32;2.63;;;20.70;99.70;;;;;;5081612;28;20075;-59
2023/07/15 02:43:59;;;;;;;7.60;2.90;;;20.70;99.70;;;;;;5080865;28;20053;-58
2023/07/15 02:46:25;;;;;;;4.95;2.28;;;20.70;99.60;;;;;;5082478;28;20036;-59
2023/07/15 02:48:51;;;;;;;5.03;2.28;;;20.70;99.60;;;;;;5079068;28;20040;-58
2023/07/15 02:51:17;;;;;;;6.43;2.50;;;20.70;99.60;;;;;;5081546;28;20044;-58
2023/07/15 02:53:47;;;;;;;3.67;2.10;;;20.60;99.60;;;;;;5080548;28;20078;-58
2023/07/15 02:56:13;;;;;;;6.78;2.53;;;20.60;99.40;;;;;;5080298;28;20048;-58
2023/07/15 02:58:40;;;;;;;4.53;2.50;;;20.60;99.60;;;;;;5081751;28;20086;-57
2023/07/15 03:01:07;;;;;;;5.30;2.10;;;20.60;99.60;;;;;;5080703;28;20435;-58
2023/07/15 03:03:33;;;;;;;7.72;2.50;;;20.50;99.40;;;;;;5081974;28;20053;-59
2023/07/15 03:06:00;;;;;;;6.40;2.70;;;20.50;99.40;;;;;;5078681;28;20044;-58
2023/07/15 03:08:26;;;;;;;4.30;2.50;;;20.50;99.50;;;;;;5082109;28;20496;-58
2023/07/15 03:10:51;;;;;;;4.75;2.20;;;20.50;99.60;;;;;;5079767;28;20036;-58
2023/07/15 03:13:17;;;;;;;4.88;2.72;;;20.40;99.70;;;;;;5081645;28;20504;-59
2023/07/15 03:15:44;;;;;;;7.43;2.70;;;20.50;99.90;;;;;;5081193;28;20041;-59
2023/07/15 03:18:10;;;;;;;6.88;2.53;;;20.40;99.90;;;;;;5112611;28;20064;-58
2023/07/15 03:20:36;;;;;;;4.97;2.25;;;20.40;99.90;;;;;;5081576;28;20497;-59
2023/07/15 03:23:01;;;;;;;5.07;3.00;;;20.30;99.90;;;;;;5079647;28;20060;-58
2023/07/15 03:25:27;;;;;;;5.20;2.53;;;20.30;99.90;;;;;;5081882;28;20048;-58
2023/07/15 03:27:53;;;;;;;4.28;2.65;;;20.20;99.90;;;;;;5079738;28;20052;-58
2023/07/15 03:30:19;;;;;;;5.93;2.90;;;20.30;99.90;;;;;;5081667;28;20046;-58
2023/07/15 03:32:46;;;;;;;5.30;2.58;;;20.20;99.90;;;;;;5080576;28;20044;-58
2023/07/15 03:35:15;;;;;;;6.13;2.58;;;20.20;99.90;;;;;;5080043;28;20059;-60
2023/07/15 03:37:42;;;;;;;4.82;2.58;;;20.10;99.90;;;;;;5081205;28;20073;-59
2023/07/15 03:40:10;;;;;;;5.65;2.60;;;20.10;99.90;;;;;;5079129;28;20045;-59
2023/07/15 03:42:36;;;;;;;6.07;2.75;;;20.10;99.90;;;;;;5081723;28;20068;-59
2023/07/15 03:45:03;;;;;;;8.45;3.10;;;20.00;99.90;;;;;;5078346;28;20067;-58
2023/07/15 03:47:29;;;;;;;7.22;2.70;;;20.00;99.90;;;;;;5081226;28;20048;-59
2023/07/15 03:49:54;;;;;;;6.03;2.80;;;20.00;99.90;;;;;;5079249;28;20116;-58
2023/07/15 03:52:20;;;;;;;7.10;2.78;;;20.00;99.90;;;;;;5080007;28;20040;-59
2023/07/15 03:54:46;;;;;;;6.25;2.80;;;19.90;99.90;;;;;;5080829;28;20058;-58
2023/07/15 03:57:11;;;;;;;4.82;2.70;;;19.80;99.90;;;;;;5077763;28;20408;-58
2023/07/15 03:59:37;;;;;;;6.45;2.70;;;19.80;99.90;;;;;;5081159;28;20040;-58
2023/07/15 04:02:03;;;;;;;7.10;2.60;;;19.80;99.90;;;;;;5077325;28;20044;-58
2023/07/15 04:04:29;;;;;;;5.45;2.80;;;19.80;99.90;;;;;;5081301;28;20040;-59
2023/07/15 04:06:55;;;;;;;7.72;2.60;;;19.80;99.90;;;;;;5078634;28;20075;-58
2023/07/15 04:09:21;;;;;;;6.43;2.72;;;19.70;99.90;;;;;;5079683;28;20142;-58
2023/07/15 04:11:47;;;;;;;5.18;3.05;;;19.70;99.90;;;;;;5080206;28;20052;-58
2023/07/15 04:14:13;;;;;;;6.15;2.80;;;19.70;99.90;;;;;;5077449;28;20150;-58
2023/07/15 04:16:39;;;;;;;5.45;2.60;;;19.70;99.90;;;;;;5080880;28;20476;-59
2023/07/15 04:19:05;;;;;;;4.85;2.70;;;19.70;99.90;;;;;;5078445;28;20060;-58
2023/07/15 04:21:31;;;;;;;5.38;2.80;;;19.60;99.90;;;;;;5080855;28;20036;-58
2023/07/15 04:23:57;;;;;;;8.38;2.97;;;19.60;99.90;;;;;;5079368;28;20040;-58
2023/07/15 04:26:24;;;;;;;5.38;3.03;;;19.60;99.90;;;;;;5079645;28;20047;-59
2023/07/15 04:28:51;;;;;;;5.63;2.92;;;19.60;99.90;;;;;;5080327;28;20044;-58
2023/07/15 04:31:17;;;;;;;5.35;2.75;;;19.60;99.90;;;;;;5078666;28;20460;-59
2023/07/15 04:33:47;;;;;;;6.80;3.00;;;19.60;99.90;;;;;;5080289;28;20118;-58
2023/07/15 04:36:13;;;;;;;6.85;2.97;;;19.60;99.90;;;;;;5078044;28;20059;-58
2023/07/15 04:38:39;;;;;;;6.90;2.75;;;19.60;99.90;;;;;;5080824;28;20128;-58
2023/07/15 04:41:05;;;;;;;5.50;2.80;;;19.50;99.90;;;;;;5078738;28;20040;-58
2023/07/15 04:43:31;;;;;;;5.00;2.55;;;19.60;99.90;;;;;;5079563;28;20041;-59
2023/07/15 04:45:57;;;;;;;7.95;2.90;;;19.60;99.90;;;;;;5079866;28;20048;-58
2023/07/15 04:48:23;;;;;;;6.40;3.05;;;19.60;99.90;;;;;;5078334;28;20104;-59
2023/07/15 04:50:50;;;;;;;4.50;2.72;;;19.60;99.90;;;;;;5080227;28;20454;-58
2023/07/15 04:53:16;;;;;;;4.47;2.80;;;19.60;99.90;;;;;;5078079;28;20036;-59
2023/07/15 04:55:42;;;;;;;8.35;2.90;;;19.60;99.90;;;;;;5080271;28;20040;-58
2023/07/15 04:58:09;;;;;;;4.55;2.70;;;19.60;99.90;;;;;;5078552;28;20504;-58
2023/07/15 05:00:36;;;;;;;4.82;2.80;;;19.60;99.90;;;;;;5079374;28;20044;-58
2023/07/15 05:03:05;;;;;;;6.93;3.00;;;19.70;99.90;;;;;;5078343;28;20032;-58
2023/07/15 05:05:31;;;;;;;5.78;2.85;;;19.70;99.90;;;;;;5078051;28;20037;-58
2023/07/15 05:08:07;;;;;;;5.55;2.90;;;19.70;99.90;;;;;;5079889;28;20045;-58
2023/07/15 05:10:33;;;;;;;5.68;2.88;;;19.70;99.90;;;;;;5075946;28;20074;-58
2023/07/15 05:12:59;;;;;;;4.85;2.72;;;19.70;99.90;;;;;;5080179;28;20048;-58
2023/07/15 05:15:25;;;;;;;6.18;2.83;;;19.80;99.90;;;;;;5077076;28;20048;-58
2023/07/15 05:17:50;;;;;;;6.28;2.60;;;19.80;99.90;;;;;;5078460;28;20060;-58
2023/07/15 05:20:19;;;;;;;7.32;2.97;;;19.80;99.90;;;;;;5079458;28;20052;-58
2023/07/15 05:22:45;;;;;;;5.72;3.00;;;19.80;99.90;;;;;;5077886;28;20108;-58
2023/07/15 05:25:10;;;;;;;7.30;3.08;;;19.90;99.90;;;;;;5079662;28;20040;-58
2023/07/15 05:27:36;;;;;;;6.03;2.78;;;20.00;99.90;;;;;;5077400;28;20060;-58
2023/07/15 05:30:02;;;;;;;4.45;2.63;;;20.00;99.90;;;;;;5079909;28;20029;-58
2023/07/15 05:32:28;;;;;;;8.40;2.92;;;20.00;99.90;;;;;;5077944;28;20044;-58
2023/07/15 05:34:53;;;;;;;6.15;2.90;;;20.10;99.90;;;;;;5078641;28;20048;-58
2023/07/15 05:37:19;;;;;;;7.78;2.70;;;20.10;99.90;;;;;;5079245;28;20044;-58
2023/07/15 05:39:46;;;;;;;4.57;3.05;;;20.20;99.90;;;;;;5077497;28;20044;-59
2023/07/15 05:42:12;;;;;;;5.50;2.72;;;20.30;99.90;;;;;;5079424;28;20124;-58
2023/07/15 05:44:37;;;;;;;7.15;3.10;;;20.40;99.90;;;;;;5077483;28;20045;-58
2023/07/15 05:47:03;;;;;;;4.45;3.15;;;20.50;99.90;;;;;;5079585;28;20041;-58
2023/07/15 05:49:29;;;;;;;9.05;2.97;;;20.60;99.90;;;;;;5077982;28;20037;-58
2023/07/15 05:51:54;;;;;;;4.80;2.95;;;20.60;99.90;;;;;;5078895;28;20083;-59
2023/07/15 05:54:20;;;;;;;6.18;2.60;;;20.80;99.90;;;;;;5078932;28;20041;-58
2023/07/15 05:56:46;;;;;;;5.45;2.78;;;20.80;99.90;;;;;;5077355;28;20088;-58
2023/07/15 05:59:11;;;;;;;4.50;2.80;;;20.90;99.90;;;;;;5079033;28;20041;-58
2023/07/15 06:01:37;;;;;;;6.05;3.00;;;21.00;99.90;;;;;;5077273;28;20045;-59
2023/07/15 06:04:06;;;;;;;6.47;3.15;;;21.00;99.90;;;;;;5078129;28;20070;-58
2023/07/15 06:06:31;;;;;;;7.03;3.00;;;21.00;99.90;;;;;;5077580;28;20047;-58
2023/07/15 06:08:57;;;;;;;8.45;3.30;;;21.10;99.90;;;;;;5077569;28;20123;-58
2023/07/15 06:11:23;;;;;;;5.65;3.15;;;21.10;99.90;;;;;;5078126;28;20032;-58
2023/07/15 06:13:48;;;;;;;7.40;3.22;;;21.20;99.90;;;;;;5077387;28;20048;-59
2023/07/15 06:16:14;;;;;;;3.88;2.70;;;21.20;99.90;;;;;;5078619;28;20079;-58
2023/07/15 06:18:40;;;;;;;6.10;2.95;;;21.30;99.90;;;;;;5075710;28;20128;-59
2023/07/15 06:21:07;;;;;;;6.65;3.30;;;21.40;99.90;;;;;;5079355;28;20044;-59
2023/07/15 06:23:33;;;;;;;6.95;2.40;;;21.40;99.90;;;;;;5076678;28;20045;-57
2023/07/15 06:25:58;;;;;;;4.70;2.88;;;21.50;99.90;;;;;;5078952;28;20046;-59
2023/07/15 06:28:24;;;;;;;6.97;2.90;;;21.50;99.90;;;;;;5081484;28;20044;-57
2023/07/15 06:30:59;;;;;;;6.75;3.15;;;21.50;99.90;;;;;;5079524;28;20076;-58
2023/07/15 06:33:24;;;;;;;8.18;2.85;;;21.50;99.90;;;;;;5082100;28;20459;-59
2023/07/15 06:35:50;;;;;;;7.63;2.83;;;21.60;99.90;;;;;;5080256;28;20041;-58
2023/07/15 06:38:16;;;;;;;6.25;3.10;;;21.60;99.90;;;;;;5082656;28;20044;-58
2023/07/15 06:40:41;;;;;;;4.15;2.88;;;21.60;99.90;;;;;;5080013;28;20032;-58
2023/07/15 06:43:08;;;;;;;5.65;2.90;;;21.70;99.90;;;;;;5082106;28;20046;-58
2023/07/15 06:45:33;;;;;;;7.13;3.00;;;21.70;99.90;;;;;;5081292;28;20064;-58
2023/07/15 06:47:59;;;;;;;9.90;3.08;;;21.80;99.90;;;;;;5080622;28;20043;-58
2023/07/15 06:50:25;;;;;;;6.43;2.63;;;21.90;99.90;;;;;;5081706;28;20041;-59
2023/07/15 06:52:50;;;;;;;4.82;2.90;;;21.90;99.90;;;;;;5079850;28;20071;-59
2023/07/15 06:55:17;;;;;;;6.20;3.08;;;22.00;99.90;;;;;;5081982;28;20049;-59
2023/07/15 06:57:42;;;;;;;6.95;3.10;;;22.10;99.90;;;;;;5079665;28;20040;-59
2023/07/15 07:00:08;;;;;;;6.05;3.15;;;22.20;99.90;;;;;;5081970;28;20040;-59
2023/07/15 07:02:34;;;;;;;7.82;3.25;;;22.20;99.90;;;;;;5080710;28;20040;-58
2023/07/15 07:05:00;;;;;;;7.97;3.33;;;22.20;99.90;;;;;;5079237;28;20136;-59
2023/07/15 07:07:26;;;;;;;7.72;2.97;;;22.30;99.90;;;;;;5081671;28;20054;-59
2023/07/15 07:09:51;;;;;;;7.50;3.03;;;22.40;99.90;;;;;;5079906;28;20048;-59
2023/07/15 07:12:18;;;;;;;6.35;3.15;;;22.50;99.90;;;;;;5081403;28;20064;-59
2023/07/15 07:14:44;;;;;;;6.10;3.13;;;22.60;99.90;;;;;;5079315;28;20040;-59
2023/07/15 07:17:09;;;;;;;7.28;3.28;;;22.70;99.90;;;;;;5081742;28;20127;-59
2023/07/15 07:19:35;;;;;;;6.95;3.10;;;22.90;99.90;;;;;;5080349;28;20044;-58
2023/07/15 07:22:01;;;;;;;7.88;3.08;;;23.10;99.90;;;;;;5079299;28;20587;-58
2023/07/15 07:24:27;;;;;;;6.00;3.33;;;23.20;99.90;;;;;;5081314;28;20044;-59
2023/07/15 07:26:52;;;;;;;7.20;2.92;;;23.40;99.90;;;;;;5079087;28;20086;-59
2023/07/15 07:29:19;;;;;;;6.55;3.30;;;23.60;99.90;;;;;;5081166;28;20099;-59
2023/07/15 07:31:45;;;;;;;6.28;2.95;;;23.80;99.90;;;;;;5078943;28;20068;-59
2023/07/15 07:34:11;;;;;;;3.53;2.60;;;24.00;99.90;;;;;;5081146;28;20044;-59
2023/07/15 07:36:36;;;;;;;6.68;2.90;;;24.40;99.90;;;;;;5061231;28;20045;-59
2023/07/15 07:39:02;;;;;;;5.53;3.08;;;24.70;99.90;;;;;;5080111;28;20051;-59
2023/07/15 07:41:28;;;;;;;7.10;2.83;;;25.00;99.90;;;;;;5080222;28;20045;-58
2023/07/15 07:43:53;;;;;;;6.03;2.55;;;25.20;99.90;;;;;;5078961;28;20048;-58
2023/07/15 07:46:19;;;;;;;6.18;2.63;;;25.40;99.90;;;;;;5080706;28;20036;-58
2023/07/15 07:48:45;;;;;;;5.97;2.88;;;25.40;99.90;;;;;;5060801;28;20044;-59
2023/07/15 07:51:11;;;;;;;6.75;2.67;;;25.40;99.90;;;;;;5080837;28;20055;-58
2023/07/15 07:53:37;;;;;;;5.05;2.53;;;25.40;99.90;;;;;;5078786;28;20099;-57
2023/07/15 07:56:04;;;;;;;4.55;2.33;;;25.40;99.90;;;;;;5080312;28;20052;-58
2023/07/15 07:58:30;;;;;;;4.93;2.60;;;25.50;99.90;;;;;;5079896;28;20092;-58
2023/07/15 08:00:55;;;;;;;6.05;2.58;;;25.80;99.90;;;;;;5079104;28;20036;-59
2023/07/15 08:03:21;;;;;;;6.15;2.53;;;25.90;99.90;;;;;;5080286;28;20044;-59
2023/07/15 08:05:48;;;;;;;5.60;2.47;;;26.00;99.90;;;;;;5078311;28;20047;-59
2023/07/15 08:08:14;;;;;;;3.30;2.30;;;26.00;99.90;;;;;;5080709;28;20071;-58
2023/07/15 08:10:41;;;;;;;4.28;2.53;;;26.00;99.90;;;;;;5077962;28;20044;-58
2023/07/15 08:13:07;;;;;;;5.45;2.78;;;26.10;99.90;;;;;;5079850;28;20056;-59
2023/07/15 08:15:34;;;;;;;5.75;2.30;;;26.10;99.90;;;;;;5079304;28;20094;-58
2023/07/15 08:18:01;;;;;;;3.92;2.50;;;26.20;99.90;;;;;;5078416;28;20087;-60
2023/07/15 08:20:27;;;;;;;5.45;2.53;;;26.20;99.90;;;;;;5079834;28;20102;-59
2023/07/15 08:22:52;;;;;;;5.55;2.40;;;26.20;99.90;;;;;;5078132;28;20040;-59
2023/07/15 08:25:18;;;;;;;3.78;2.50;;;26.30;99.70;;;;;;5079893;28;20044;-59
2023/07/15 08:27:44;;;;;;;4.93;2.72;;;26.30;99.90;;;;;;5076623;28;20040;-59
2023/07/15 08:30:10;;;;;;;4.40;2.92;;;26.50;99.80;;;;;;5079927;28;20037;-59
2023/07/15 08:32:35;;;;;;;4.28;2.00;;;26.60;99.60;;;;;;5078837;28;20074;-60
2023/07/15 08:35:03;;;;;;;3.88;2.38;;;26.70;99.60;;;;;;5078420;28;20045;-60
2023/07/15 08:37:29;;;;;;;5.20;2.17;;;26.70;98.90;;;;;;5079539;28;20039;-59
2023/07/15 08:39:55;;;;;;;4.97;2.30;;;26.60;98.80;;;;;;5077772;28;20048;-59
2023/07/15 08:42:23;;;;;;;3.55;2.20;;;26.30;98.80;;;;;;5079562;28;20048;-59
2023/07/15 08:44:52;;;;;;;5.50;2.10;;;26.00;98.90;;;;;;5077500;28;20045;-59
2023/07/15 08:47:20;;;;;;;4.13;2.30;;;25.80;99.20;;;;;;5079629;28;20164;-59
2023/07/15 08:49:48;;;;;;;5.20;2.30;;;25.60;99.50;;;;;;5078110;28;20049;-59
2023/07/15 08:52:17;;;;;;;4.55;2.25;;;25.50;99.90;;;;;;5078160;28;20044;-59
2023/07/15 08:54:43;;;;;;;4.15;2.17;;;25.40;99.90;;;;;;5079237;28;20083;-59
2023/07/15 08:57:10;;;;;;;7.90;2.60;;;25.30;99.90;;;;;;5077514;28;20045;-58
2023/07/15 08:59:36;;;;;;;4.97;2.65;;;25.20;99.90;;;;;;5078031;28;20052;-59
2023/07/15 09:02:02;;;;;;;4.22;2.60;;;25.10;99.90;;;;;;5077024;28;20052;-58
2023/07/15 09:04:28;;;;;;;5.45;2.75;;;25.10;99.90;;;;;;5079212;28;20051;-59
2023/07/15 09:06:55;;;;;;;6.55;2.80;;;25.00;99.90;;;;;;5076745;28;20048;-58
2023/07/15 09:09:42;;;;;;;6.53;2.63;;;25.00;99.90;;;;;;5076639;28;20053;-59
2023/07/15 09:12:09;;;;;;;;;;;25.10;99.90;;;;;;5079275;28;20052;-58
2023/07/15 09:14:42;;;;;;;3.63;2.58;;;25.10;99.90;;;;;;5076779;28;19921;-58
2023/07/15 09:17:08;;;;;;;5.40;2.72;;;25.20;99.90;;;;;;5079155;28;20064;-58
2023/07/15 09:19:35;;;;;;;5.13;3.00;;;25.30;99.90;;;;;;5077747;28;20052;-58
2023/07/15 09:22:06;;;;;;;4.88;3.00;;;25.50;99.90;;;;;;5078120;28;20059;-59
2023/07/15 09:24:35;;;;;;;10.90;2.70;;;25.50;99.90;;;;;;5078580;28;20056;-59
2023/07/15 09:27:00;;;;;;;4.47;2.92;;;25.50;99.90;;;;;;5077060;28;20040;-59
2023/07/15 09:29:26;;;;;;;5.18;2.65;;;25.50;99.90;;;;;;5079216;28;20054;-59
2023/07/15 09:31:52;;;;;;;4.75;3.00;;;25.40;99.90;;;;;;5109011;28;20049;-58
2023/07/15 09:34:19;;;;;;;5.85;2.30;;;25.50;99.90;;;;;;5079071;28;20055;-58
2023/07/15 09:36:45;;;;;;;6.07;3.15;;;25.60;99.90;;;;;;5077748;28;20040;-58
2023/07/15 09:39:17;;;;;;;5.38;3.08;;;25.70;99.90;;;;;;5077812;28;20062;-58
2023/07/15 09:41:43;;;;;;;6.47;3.10;;;25.70;99.90;;;;;;5076764;28;20068;-58
2023/07/15 09:44:10;;;;;;;7.28;3.05;;;25.70;99.90;;;;;;5076931;28;20048;-60
2023/07/15 09:46:36;;;;;;;4.25;2.60;;;25.70;99.90;;;;;;5078907;28;20078;-58
2023/07/15 09:49:01;;;;;;;5.93;3.08;;;25.80;99.90;;;;;;5076352;28;20044;-58
2023/07/15 09:51:27;;;;;;;6.47;3.20;;;25.80;99.90;;;;;;5078783;28;20040;-58
2023/07/15 09:53:55;;;;;;;5.70;2.90;;;25.80;99.90;;;;;;5077569;28;20051;-57
2023/07/15 09:56:37;;;;;;;4.53;2.25;;;25.80;99.90;;;;;;5077384;28;20056;-58
2023/07/15 09:59:13;;;;;;;3.95;2.10;;;25.90;99.90;;;;;;5078147;28;20049;-58
2023/07/15 10:01:44;;;;;;;2.95;2.00;;;25.90;99.90;;;;;;5078287;28;20052;-57
2023/07/15 10:04:41;;;;;;;4.28;2.50;;;26.00;99.90;;;;;;5082632;28;20782;-57
2023/07/15 10:07:06;;;;;;;4.35;2.42;;;26.10;99.90;;;;;;5081839;28;20045;-57
2023/07/15 10:09:33;;;;;;;3.50;1.88;;;26.20;99.90;;;;;;5080038;28;20461;-57
2023/07/15 10:12:00;;;;;;;3.85;1.73;;;26.20;99.90;;;;;;5081761;28;20037;-58
2023/07/15 10:14:30;;;;;;;5.75;2.05;;;26.20;99.90;;;;;;5080123;28;20081;-57
2023/07/15 10:17:13;;;;;;;3.75;1.80;;;26.30;99.90;;;;;;5082146;28;20044;-60
2023/07/15 10:19:43;;;;;;;2.20;1.75;;;26.30;99.90;;;;;;5080949;28;20045;-57
2023/07/15 10:22:12;;;;;;;3.15;1.80;;;26.30;99.90;;;;;;5080372;28;20052;-58
2023/07/15 10:24:42;;;;;;;4.30;1.90;;;26.20;99.90;;;;;;5081660;28;20151;-58
2023/07/15 10:27:10;;;;;;;3.25;1.70;;;26.10;99.90;;;;;;5079800;28;20104;-58
2023/07/15 10:29:40;;;;;;;3.17;1.80;;;26.00;99.90;;;;;;5082076;28;20113;-58
2023/07/15 10:32:12;;;;;;;3.30;1.70;;;26.00;99.90;;;;;;5080261;28;20040;-57
2023/07/15 10:34:48;;;;;;;2.90;1.50;;;25.90;99.90;;;;;;5081322;28;20048;-58
2023/07/15 10:37:15;;;;;;;2.83;1.30;;;25.90;99.90;;;;;;5081694;28;20055;-58
2023/07/15 10:39:42;;;;;;;3.95;1.50;;;25.90;99.90;;;;;;5079914;28;20080;-58
2023/07/15 10:42:36;;;;;;;3.67;1.50;;;25.80;99.90;;;;;;5081759;28;20036;-59
2023/07/15 10:45:01;;;;;;;2.60;1.50;;;25.90;99.50;;;;;;5080004;28;20040;-57
2023/07/15 10:47:28;;;;;;;3.40;1.50;;;25.80;99.70;;;;;;5081042;28;20047;-58
2023/07/15 10:49:54;;;;;;;2.42;1.30;;;25.80;99.20;;;;;;5079531;28;20522;-57
2023/07/15 10:52:21;;;;;;;2.65;1.63;;;25.80;99.10;;;;;;5079970;28;20092;-59
2023/07/15 10:54:46;;;;;;;3.95;1.52;;;25.90;99.30;;;;;;5081291;28;20058;-56
2023/07/15 10:57:14;;;;;;;3.15;1.50;;;25.90;98.90;;;;;;5079589;28;20068;-60
2023/07/15 10:59:42;;;;;;;5.28;1.77;;;25.90;99.00;;;;;;5081483;28;20056;-60
2023/07/15 11:02:08;;;;;;;5.63;1.55;;;25.80;99.30;;;;;;5079351;28;20105;-56
2023/07/15 11:04:35;;;;;;;6.47;1.60;;;25.70;99.90;;;;;;5081096;28;20063;-59
2023/07/15 11:07:03;;;;;;;2.75;1.70;;;25.70;99.60;;;;;;5080768;28;20052;-59
2023/07/15 11:09:29;;;;;;;2.65;1.50;;;25.70;99.80;;;;;;5079649;28;20098;-59
2023/07/15 11:11:55;;;;;;;2.88;1.60;;;25.70;99.90;;;;;;5080172;28;20094;-59
2023/07/15 11:14:26;;;;;;;2.28;1.52;;;25.70;99.90;;;;;;5079047;28;20052;-58
2023/07/15 11:16:53;;;;;;;3.30;1.95;;;25.80;99.90;;;;;;5080917;28;20045;-57
2023/07/15 11:19:19;;;;;;;4.38;1.80;;;25.80;99.70;;;;;;5078896;28;20045;-61
2023/07/15 11:21:45;;;;;;;3.60;1.45;;;25.80;99.70;;;;;;5080776;28;20048;-58
2023/07/15 11:24:12;;;;;;;2.80;1.52;;;25.80;99.80;;;;;;5080695;28;20064;-58
2023/07/15 11:26:41;;;;;;;4.40;1.67;;;25.80;99.90;;;;;;5077265;28;20079;-57
2023/07/15 11:29:17;;;;;;;5.45;1.60;;;25.80;99.90;;;;;;5079276;28;20045;-57
2023/07/15 11:31:48;;;;;;;7.43;1.80;;;25.80;99.90;;;;;;5078293;28;20067;-57
2023/07/15 11:34:19;;;;;;;3.70;1.73;;;25.80;99.90;;;;;;5080887;28;20044;-57
2023/07/15 11:36:46;;;;;;;5.55;1.60;;;25.80;99.90;;;;;;5079501;28;20124;-57
2023/07/15 11:39:13;;;;;;;4.63;1.90;;;25.80;99.90;;;;;;5079461;28;20045;-58
2023/07/15 11:41:38;;;;;;;4.95;1.77;;;25.70;99.90;;;;;;5080065;28;20501;-60
2023/07/15 11:44:10;;;;;;;5.13;1.83;;;25.70;99.90;;;;;;5079002;28;20298;-62
2023/07/15 11:46:37;;;;;;;4.75;1.85;;;25.70;99.90;;;;;;5079645;28;20044;-61
2023/07/15 11:49:03;;;;;;;5.40;1.70;;;25.60;99.90;;;;;;5078992;28;20047;-60
2023/07/15 11:51:32;;;;;;;4.68;1.70;;;25.70;99.90;;;;;;5080972;28;20045;-61
2023/07/15 11:53:58;;;;;;;3.88;2.10;;;25.80;99.90;;;;;;5079650;28;20108;-60
2023/07/15 11:56:43;;;;;;;3.15;1.70;;;25.80;99.90;;;;;;5079179;28;20117;-60
2023/07/15 11:59:11;;;;;;;4.72;1.80;;;25.90;99.90;;;;;;5080585;28;20357;-59
2023/07/15 12:01:41;;;;;;;5.05;1.88;;;25.70;99.70;;;;;;5078412;28;20036;-60
2023/07/15 12:04:19;;;;;;;4.18;1.85;;;25.80;99.40;;;;;;5080826;28;20055;-59
2023/07/15 12:06:54;;;;;;;4.43;1.83;;;25.80;99.00;;;;;;5079616;28;20048;-60
2023/07/15 12:09:21;;;;;;;5.85;1.88;;;25.90;99.30;;;;;;5078973;28;20044;-61
2023/07/15 12:11:48;;;;;;;4.32;1.90;;;25.90;99.50;;;;;;5079862;28;20051;-60
2023/07/15 12:14:15;;;;;;;5.65;1.90;;;26.00;99.10;;;;;;5078268;28;20053;-61
2023/07/15 12:16:42;;;;;;;6.80;1.80;;;26.10;99.50;;;;;;5080250;28;20456;-60
2023/07/15 12:19:10;;;;;;;2.63;1.63;;;26.20;99.90;;;;;;5077826;28;20408;-61
2023/07/15 12:21:36;;;;;;;4.10;1.90;;;26.30;99.60;;;;;;5080079;28;20041;-61
2023/07/15 12:24:02;;;;;;;5.07;1.80;;;26.40;99.30;;;;;;5078557;28;20143;-58
2023/07/15 12:26:28;;;;;;;6.00;1.60;;;26.30;99.40;;;;;;5078574;28;20051;-61
2023/07/15 12:28:54;;;;;;;3.40;1.63;;;26.40;98.60;;;;;;5079918;28;20037;-61
2023/07/15 12:31:21;;;;;;;5.38;1.90;;;26.40;98.00;;;;;;5078259;28;20048;-61
2023/07/15 12:33:47;;;;;;;3.47;1.48;;;26.40;97.90;;;;;;5079758;28;20049;-60
2023/07/15 12:36:14;;;;;;;3.05;1.80;;;26.40;96.60;;;;;;5077763;28;20192;-55
2023/07/15 12:38:40;;;;;;;4.15;2.10;;;26.40;96.80;;;;;;5079640;28;20468;-57
2023/07/15 12:41:07;;;;;;;4.82;2.00;;;26.50;96.90;;;;;;5078639;28;20044;-57
2023/07/15 12:43:33;;;;;;;5.85;1.60;;;26.60;97.50;;;;;;5078230;28;20045;-57
2023/07/15 12:46:00;;;;;;;4.70;2.42;;;26.70;97.50;;;;;;5078984;28;20037;-56
2023/07/15 12:48:26;;;;;;;8.50;2.10;;;26.90;96.90;;;;;;5077593;28;20036;-57